Time;durP1;ratioP1;P1;durP2;ratioP2;P2;SDS_P1;SDS_P2;PMS_P1;PMS_P2;Temp;Humidity;BMP_temperature;BMP_pressure;BME280_temperature;BME280_humidity;BME280_pressure;Samples;Min_cycle;Max_cycle;Signal;HPM_P1;HPM_P2
2023/02/26 00:00:08;;;;;;;6.62;1.40;;;4.60;47.90;;;;;;2587107;53;20929;-85
2023/02/26 00:02:35;;;;;;;4.10;1.70;;;4.60;47.90;;;;;;2342151;53;20972;-84
2023/02/26 00:05:03;;;;;;;2.35;1.10;;;4.50;47.80;;;;;;2341843;53;21017;-84
2023/02/26 00:07:29;;;;;;;3.03;1.08;;;4.50;47.90;;;;;;2585108;53;20930;-84
2023/02/26 00:09:56;;;;;;;1.67;0.70;;;4.40;47.80;;;;;;2342538;53;20908;-85
2023/02/26 00:12:22;;;;;;;2.55;1.00;;;4.40;47.80;;;;;;2342748;53;20980;-84
2023/02/26 00:14:49;;;;;;;2.35;0.90;;;4.40;47.80;;;;;;2588046;53;21079;-84
2023/02/26 00:17:39;;;;;;;1.83;0.70;;;4.30;47.80;;;;;;2587373;53;20977;-84
2023/02/26 00:20:07;;;;;;;2.92;0.70;;;4.30;47.80;;;;;;2587294;53;20956;-85
2023/02/26 00:22:35;;;;;;;2.55;0.70;;;4.20;47.70;;;;;;2343595;53;20903;-86
2023/02/26 00:25:01;;;;;;;4.12;0.98;;;4.20;47.70;;;;;;2586911;53;20924;-86
2023/02/26 00:27:27;;;;;;;4.72;1.17;;;4.20;47.70;;;;;;2587403;52;20909;-86
2023/02/26 00:29:54;;;;;;;1.98;0.90;;;4.10;47.70;;;;;;2346734;53;20893;-85
2023/02/26 00:32:20;;;;;;;4.00;1.20;;;4.10;47.70;;;;;;2342325;53;20977;-85
2023/02/26 00:34:47;;;;;;;3.03;1.10;;;4.10;47.70;;;;;;2343423;53;20936;-86
2023/02/26 00:37:37;;;;;;;3.37;0.98;;;4.00;47.80;;;;;;2586540;53;20933;-85
2023/02/26 00:40:46;;;;;;;3.85;1.00;;;4.00;47.70;;;;;;2586241;53;20973;-85
2023/02/26 00:43:17;;;;;;;1.20;0.60;;;3.90;47.70;;;;;;2586670;53;21000;-86
2023/02/26 00:46:15;;;;;;;1.60;0.70;;;3.90;47.80;;;;;;2587429;52;20986;-85
2023/02/26 00:51:47;;;;;;;1.90;0.90;;;3.80;47.70;;;;;;2586790;53;20912;-86
2023/02/26 00:54:46;;;;;;;3.60;0.80;;;3.80;47.70;;;;;;2342713;53;20964;-86
2023/02/26 00:57:13;;;;;;;1.73;0.73;;;3.80;47.70;;;;;;2343482;53;22510;-86
2023/02/26 00:59:39;;;;;;;2.33;0.90;;;3.70;47.70;;;;;;2587593;53;20952;-86
2023/02/26 01:02:05;;;;;;;1.92;0.70;;;3.70;47.70;;;;;;2586690;53;20964;-86
2023/02/26 01:04:32;;;;;;;2.92;0.93;;;3.60;47.70;;;;;;2342024;53;21067;-85
2023/02/26 01:06:58;;;;;;;3.10;0.70;;;3.60;47.70;;;;;;2342641;53;21596;-86
2023/02/26 01:09:32;;;;;;;2.92;0.70;;;3.50;47.70;;;;;;2342021;53;21061;-86
2023/02/26 01:12:00;;;;;;;2.22;0.70;;;3.50;47.80;;;;;;2587350;53;20980;-86
2023/02/26 01:14:27;;;;;;;3.22;0.80;;;3.50;47.80;;;;;;2586736;52;20985;-87
2023/02/26 01:18:46;;;;;;;2.37;0.95;;;3.40;47.70;;;;;;2341165;54;20945;-87
2023/02/26 01:21:16;;;;;;;2.37;0.60;;;3.30;47.60;;;;;;2586768;52;20961;-86
2023/02/26 01:23:45;;;;;;;2.00;0.80;;;3.30;47.70;;;;;;2588036;53;21056;-86
2023/02/26 01:26:14;;;;;;;2.10;0.90;;;3.20;47.70;;;;;;2343726;53;20932;-85
2023/02/26 01:28:41;;;;;;;2.87;0.90;;;3.20;47.70;;;;;;2343780;53;21508;-86
2023/02/26 01:31:15;;;;;;;1.60;0.70;;;3.20;47.80;;;;;;2343932;53;20901;-86
2023/02/26 01:33:45;;;;;;;2.53;0.82;;;3.10;47.70;;;;;;2343767;53;20961;-87
2023/02/26 01:36:20;;;;;;;2.00;0.77;;;3.10;47.80;;;;;;2581765;52;20933;-87
2023/02/26 01:42:18;;;;;;;2.08;0.70;;;3.00;47.80;;;;;;2343121;53;20995;-86
2023/02/26 01:46:31;;;;;;;2.03;0.88;;;3.00;47.80;;;;;;2586983;53;21571;-86
2023/02/26 01:48:58;;;;;;;2.12;0.98;;;2.90;47.70;;;;;;2587422;52;21048;-87
2023/02/26 01:51:56;;;;;;;1.75;0.70;;;2.90;47.80;;;;;;2342628;53;20908;-85
2023/02/26 01:54:24;;;;;;;2.50;0.90;;;2.80;47.80;;;;;;2582069;53;22439;-87
2023/02/26 01:56:56;;;;;;;2.72;0.80;;;2.80;47.90;;;;;;2588021;53;21034;-86
2023/02/26 01:59:25;;;;;;;2.10;0.80;;;2.70;47.90;;;;;;2586900;53;20901;-84
2023/02/26 02:01:52;;;;;;;2.75;0.98;;;2.80;48.00;;;;;;2587438;53;21023;-86
2023/02/26 02:04:19;;;;;;;3.28;1.37;;;2.70;48.00;;;;;;2586136;52;21095;-85
2023/02/26 02:06:45;;;;;;;2.40;0.90;;;2.70;48.00;;;;;;2587430;53;20949;-86
2023/02/26 02:09:11;;;;;;;1.75;0.90;;;2.70;48.00;;;;;;2342569;53;20964;-87
2023/02/26 02:14:31;;;;;;;2.20;0.90;;;2.70;48.10;;;;;;2587249;53;21706;-86
2023/02/26 02:20:46;;;;;;;2.33;0.95;;;2.70;48.10;;;;;;2587482;52;20988;-87
2023/02/26 02:23:21;;;;;;;2.12;0.80;;;2.60;48.00;;;;;;2342107;53;21741;-88
2023/02/26 02:27:29;;;;;;;2.62;0.88;;;2.50;47.90;;;;;;2585241;53;21040;-88
2023/02/26 02:30:33;;;;;;;2.17;0.80;;;2.50;48.00;;;;;;2584754;52;20953;-86
2023/02/26 02:33:13;;;;;;;3.40;1.10;;;2.50;48.10;;;;;;2341995;53;20977;-86
2023/02/26 02:35:55;;;;;;;3.08;0.98;;;2.50;48.20;;;;;;2344117;53;20982;-87
2023/02/26 02:38:27;;;;;;;4.43;1.10;;;2.40;48.20;;;;;;2585477;52;20956;-86
2023/02/26 02:41:13;;;;;;;2.20;0.90;;;2.40;48.20;;;;;;2586478;52;21024;-85
2023/02/26 02:43:39;;;;;;;2.00;0.80;;;2.40;48.30;;;;;;2585541;53;20893;-85
2023/02/26 02:46:08;;;;;;;1.73;0.70;;;2.40;48.30;;;;;;2585152;53;20904;-85
2023/02/26 02:48:40;;;;;;;1.95;0.70;;;2.30;48.30;;;;;;2585181;53;20965;-86
2023/02/26 02:51:12;;;;;;;2.05;0.80;;;2.30;48.30;;;;;;2584646;53;20977;-86
2023/02/26 02:53:49;;;;;;;2.58;0.95;;;2.40;48.40;;;;;;2341837;53;20928;-86
2023/02/26 02:56:26;;;;;;;2.47;0.90;;;2.30;48.30;;;;;;2585164;53;21089;-87
2023/02/26 02:58:56;;;;;;;2.10;0.80;;;2.30;48.40;;;;;;2585931;53;21445;-85
2023/02/26 03:01:23;;;;;;;2.72;1.15;;;2.30;48.40;;;;;;2584436;53;20940;-85
2023/02/26 03:04:13;;;;;;;3.50;1.10;;;2.30;48.40;;;;;;2341957;53;20968;-85
2023/02/26 03:06:40;;;;;;;3.15;1.12;;;2.30;48.40;;;;;;2585444;53;21953;-86
2023/02/26 03:09:07;;;;;;;3.28;1.10;;;2.30;48.40;;;;;;2585012;52;21286;-85
2023/02/26 03:11:34;;;;;;;2.55;0.93;;;2.30;48.50;;;;;;2341203;53;20932;-86
2023/02/26 03:14:00;;;;;;;3.00;1.10;;;2.30;48.50;;;;;;2341262;53;20928;-84
2023/02/26 03:17:10;;;;;;;2.75;1.10;;;2.30;48.50;;;;;;2584284;52;20961;-85
2023/02/26 03:19:57;;;;;;;2.35;0.90;;;2.30;48.60;;;;;;2585155;53;20925;-85
2023/02/26 03:23:27;;;;;;;2.62;0.98;;;2.30;49.10;;;;;;2340803;53;21773;-85
2023/02/26 03:26:15;;;;;;;2.42;0.90;;;2.30;48.60;;;;;;2342779;53;20992;-87
2023/02/26 03:29:32;;;;;;;2.17;1.02;;;2.30;48.60;;;;;;2585000;53;20956;-86
2023/02/26 03:32:02;;;;;;;2.55;1.02;;;2.30;48.60;;;;;;2585282;52;20924;-85
2023/02/26 03:34:47;;;;;;;2.92;0.98;;;2.30;48.60;;;;;;2583908;52;20939;-86
2023/02/26 03:37:25;;;;;;;2.67;0.95;;;2.30;48.60;;;;;;2342699;53;20928;-86
2023/02/26 03:39:54;;;;;;;3.00;1.10;;;2.30;48.70;;;;;;2586556;52;20916;-86
2023/02/26 03:42:34;;;;;;;2.58;1.02;;;2.20;48.60;;;;;;2341414;53;20964;-86
2023/02/26 03:45:06;;;;;;;2.95;1.10;;;2.30;48.70;;;;;;2585527;53;20936;-86
2023/02/26 03:47:32;;;;;;;2.75;0.95;;;2.20;48.60;;;;;;2586505;52;21001;-86
2023/02/26 03:50:09;;;;;;;3.35;1.05;;;2.20;48.60;;;;;;2586801;53;20989;-86
2023/02/26 03:52:38;;;;;;;1.80;0.90;;;2.20;48.70;;;;;;2554001;53;20960;-86
2023/02/26 03:55:15;;;;;;;3.03;0.93;;;2.20;48.60;;;;;;2586329;53;20976;-85
2023/02/26 03:57:41;;;;;;;3.53;0.80;;;2.20;48.70;;;;;;2586004;53;20921;-85
2023/02/26 04:00:09;;;;;;;2.12;0.80;;;2.20;48.70;;;;;;2342454;53;20908;-86
2023/02/26 04:02:58;;;;;;;3.30;0.88;;;2.20;49.30;;;;;;2342107;53;21619;-86
2023/02/26 04:05:32;;;;;;;3.87;0.80;;;2.20;48.70;;;;;;2341837;53;21733;-86
2023/02/26 04:07:59;;;;;;;2.10;0.85;;;2.20;48.70;;;;;;2587004;53;20988;-85
2023/02/26 04:10:31;;;;;;;3.30;1.08;;;2.20;48.70;;;;;;2341822;53;21366;-86
2023/02/26 04:12:59;;;;;;;2.30;0.88;;;2.20;48.70;;;;;;2587008;53;20920;-86
2023/02/26 04:15:25;;;;;;;1.85;0.80;;;2.20;48.70;;;;;;2585213;53;20992;-86
2023/02/26 04:17:52;;;;;;;2.35;0.80;;;2.20;48.70;;;;;;2342757;53;20952;-86
2023/02/26 04:20:18;;;;;;;2.92;0.70;;;2.10;48.60;;;;;;2585975;52;20913;-85
2023/02/26 04:22:45;;;;;;;2.28;0.80;;;2.10;48.70;;;;;;2586360;53;20992;-84
2023/02/26 04:25:11;;;;;;;3.55;1.10;;;2.10;48.70;;;;;;2342282;53;20917;-86
2023/02/26 04:27:37;;;;;;;1.92;0.70;;;2.10;48.70;;;;;;2586391;53;21002;-85
2023/02/26 04:30:05;;;;;;;3.85;0.95;;;2.10;48.70;;;;;;2587044;52;20964;-86
2023/02/26 04:32:31;;;;;;;2.12;0.88;;;2.10;48.70;;;;;;2584638;52;21870;-83
2023/02/26 04:34:57;;;;;;;1.92;0.80;;;2.10;48.70;;;;;;2342810;53;20913;-85
2023/02/26 04:37:24;;;;;;;2.10;0.90;;;2.10;48.70;;;;;;2585798;53;20952;-84
2023/02/26 04:39:50;;;;;;;2.37;0.75;;;2.10;48.70;;;;;;2587055;52;21387;-87
2023/02/26 04:42:16;;;;;;;2.50;0.80;;;2.10;48.70;;;;;;2586156;53;20920;-86
2023/02/26 04:44:43;;;;;;;1.92;0.80;;;2.00;48.70;;;;;;2585904;53;20980;-85
2023/02/26 04:47:09;;;;;;;2.20;0.90;;;2.00;48.70;;;;;;2586175;52;21012;-84
2023/02/26 04:49:36;;;;;;;1.52;0.73;;;2.00;48.70;;;;;;2585434;53;21437;-85
2023/02/26 04:52:02;;;;;;;1.67;0.68;;;2.00;48.70;;;;;;2586731;53;20959;-84
2023/02/26 04:54:29;;;;;;;2.42;1.00;;;2.00;48.70;;;;;;2584673;52;21001;-85
2023/02/26 04:56:55;;;;;;;2.60;0.98;;;2.00;48.80;;;;;;2586929;53;20944;-84
2023/02/26 04:59:21;;;;;;;4.12;0.80;;;1.90;48.70;;;;;;2341917;53;21464;-86
2023/02/26 05:01:47;;;;;;;2.47;0.88;;;1.90;48.70;;;;;;2342244;53;20924;-86
2023/02/26 05:04:14;;;;;;;2.37;1.00;;;1.90;48.70;;;;;;2586024;53;20920;-85
2023/02/26 05:06:40;;;;;;;3.83;0.85;;;1.80;48.70;;;;;;2586446;53;21048;-86
2023/02/26 05:09:06;;;;;;;3.10;1.10;;;1.80;48.70;;;;;;2587077;53;20975;-86
2023/02/26 05:11:36;;;;;;;1.85;0.90;;;1.80;48.70;;;;;;2586011;52;20956;-83
2023/02/26 05:14:02;;;;;;;2.72;1.12;;;1.80;48.80;;;;;;2586675;53;20944;-86
2023/02/26 05:16:28;;;;;;;2.65;1.08;;;1.80;48.80;;;;;;2585571;53;21884;-85
2023/02/26 05:18:55;;;;;;;3.55;1.00;;;1.70;48.80;;;;;;2343050;53;21825;-86
2023/02/26 05:21:21;;;;;;;3.20;1.00;;;1.70;48.80;;;;;;2585502;53;21599;-86
2023/02/26 05:23:48;;;;;;;4.15;0.98;;;1.70;48.80;;;;;;2583432;53;20948;-84
2023/02/26 05:26:15;;;;;;;3.60;0.98;;;1.70;48.90;;;;;;2583098;53;20937;-85
2023/02/26 05:28:44;;;;;;;2.78;0.90;;;1.70;48.90;;;;;;2584338;52;21022;-87
2023/02/26 05:31:12;;;;;;;3.28;1.00;;;1.70;48.90;;;;;;2553030;53;20992;-86
2023/02/26 05:33:38;;;;;;;3.92;1.00;;;1.70;48.90;;;;;;2584321;53;21614;-84
2023/02/26 05:36:05;;;;;;;2.30;0.88;;;1.60;48.80;;;;;;2342398;53;20916;-86
2023/02/26 05:38:32;;;;;;;2.12;1.00;;;1.60;48.90;;;;;;2586043;53;21039;-83
2023/02/26 05:40:58;;;;;;;3.50;1.00;;;1.60;48.90;;;;;;2585716;53;21077;-85
2023/02/26 05:43:25;;;;;;;2.30;0.98;;;1.60;48.90;;;;;;2583992;53;21063;-85
2023/02/26 05:45:51;;;;;;;2.50;1.12;;;1.60;48.80;;;;;;2583999;53;20997;-85
2023/02/26 05:48:18;;;;;;;2.37;1.10;;;1.60;48.90;;;;;;2585791;52;21358;-86
2023/02/26 05:50:44;;;;;;;2.40;1.12;;;1.60;48.90;;;;;;2586030;53;20913;-85
2023/02/26 05:53:10;;;;;;;3.67;1.20;;;1.50;48.80;;;;;;2343047;53;20960;-84
2023/02/26 05:55:37;;;;;;;2.17;1.05;;;1.50;48.80;;;;;;2585765;53;20919;-86
2023/02/26 05:58:03;;;;;;;2.90;1.00;;;1.50;48.90;;;;;;2586998;53;20945;-85
2023/02/26 06:00:29;;;;;;;3.72;1.50;;;1.50;48.90;;;;;;2585671;53;20932;-85
2023/02/26 06:02:56;;;;;;;3.00;1.05;;;1.40;48.80;;;;;;2586847;53;20980;-85
2023/02/26 06:05:22;;;;;;;3.53;1.30;;;1.40;48.90;;;;;;2585909;53;20949;-84
2023/02/26 06:07:48;;;;;;;2.45;1.00;;;1.40;48.90;;;;;;2587213;53;21401;-86
2023/02/26 06:10:14;;;;;;;2.50;1.08;;;1.40;48.90;;;;;;2582901;53;21009;-84
2023/02/26 06:12:41;;;;;;;2.65;1.20;;;1.40;48.90;;;;;;2585832;53;20925;-85
2023/02/26 06:15:08;;;;;;;3.25;1.10;;;1.30;48.90;;;;;;2341336;53;21016;-84
2023/02/26 06:17:35;;;;;;;3.12;1.20;;;1.30;48.90;;;;;;2341134;53;21622;-86
2023/02/26 06:20:02;;;;;;;2.90;1.20;;;1.30;49.00;;;;;;2586255;53;20964;-85
2023/02/26 06:22:28;;;;;;;3.00;0.90;;;1.30;49.00;;;;;;2585457;52;20933;-85
2023/02/26 06:24:55;;;;;;;6.10;1.23;;;1.30;49.10;;;;;;2585637;52;21761;-86
2023/02/26 06:27:22;;;;;;;5.00;1.35;;;1.30;49.10;;;;;;2586092;53;20956;-83
2023/02/26 06:29:48;;;;;;;3.33;1.40;;;1.30;49.20;;;;;;2585581;53;21504;-85
2023/02/26 06:32:14;;;;;;;2.70;1.15;;;1.30;49.30;;;;;;2343311;54;20986;-87
2023/02/26 06:34:41;;;;;;;3.85;1.00;;;1.30;49.30;;;;;;2587257;52;20964;-84
2023/02/26 06:37:07;;;;;;;3.15;1.30;;;1.30;49.30;;;;;;2586754;53;21997;-84
2023/02/26 06:39:33;;;;;;;3.78;1.30;;;1.30;49.40;;;;;;2584015;52;21031;-86
2023/02/26 06:42:00;;;;;;;4.20;1.20;;;1.30;49.40;;;;;;2341255;53;22358;-86
2023/02/26 06:44:26;;;;;;;4.18;1.23;;;1.30;49.40;;;;;;2583490;53;21181;-85
2023/02/26 06:46:52;;;;;;;4.60;1.65;;;1.10;49.30;;;;;;2581776;53;20952;-85
2023/02/26 06:49:21;;;;;;;2.95;1.15;;;1.30;49.50;;;;;;2339794;53;21979;-87
2023/02/26 06:51:48;;;;;;;3.42;1.30;;;1.30;49.50;;;;;;2582737;52;20936;-84
2023/02/26 06:54:14;;;;;;;2.50;1.27;;;1.20;49.60;;;;;;2340858;53;20954;-86
2023/02/26 06:56:41;;;;;;;2.75;1.20;;;1.40;49.60;;;;;;2341569;53;20881;-86
2023/02/26 06:59:07;;;;;;;3.25;1.60;;;1.40;49.70;;;;;;2342361;53;20944;-85
2023/02/26 07:01:33;;;;;;;2.70;1.20;;;1.40;49.70;;;;;;2584832;53;21000;-86
2023/02/26 07:04:00;;;;;;;6.65;1.40;;;1.40;49.70;;;;;;2342457;53;21021;-86
2023/02/26 07:06:26;;;;;;;4.00;1.10;;;1.40;49.70;;;;;;2342028;53;20956;-85
2023/02/26 07:08:54;;;;;;;4.78;1.75;;;1.40;49.80;;;;;;2586867;53;21011;-86
2023/02/26 07:11:22;;;;;;;3.12;1.40;;;1.50;49.90;;;;;;2343032;53;21194;-84
2023/02/26 07:13:50;;;;;;;2.90;1.20;;;1.50;49.80;;;;;;2586154;53;20945;-83
2023/02/26 07:16:17;;;;;;;3.47;1.45;;;1.50;49.80;;;;;;2344601;53;22156;-86
2023/02/26 07:18:43;;;;;;;4.75;1.45;;;1.60;50.00;;;;;;2584427;53;20999;-86
2023/02/26 07:21:09;;;;;;;3.42;1.35;;;1.60;50.10;;;;;;2587690;53;21016;-86
2023/02/26 07:23:35;;;;;;;3.22;1.37;;;1.60;50.10;;;;;;2342923;53;20948;-87
2023/02/26 07:26:02;;;;;;;3.45;1.33;;;1.60;50.10;;;;;;2343168;53;20960;-87
2023/02/26 07:28:28;;;;;;;4.55;1.58;;;1.70;50.10;;;;;;2581359;53;20925;-82
2023/02/26 07:30:55;;;;;;;3.90;1.83;;;1.70;50.10;;;;;;2580803;53;21033;-82
2023/02/26 07:33:21;;;;;;;3.37;1.45;;;1.70;50.20;;;;;;2580693;52;21071;-84
2023/02/26 07:35:47;;;;;;;3.95;1.60;;;1.80;50.30;;;;;;2341765;53;22324;-86
2023/02/26 07:38:14;;;;;;;4.70;1.62;;;1.80;50.30;;;;;;2342549;53;21464;-84
2023/02/26 07:40:40;;;;;;;4.45;1.60;;;1.80;50.20;;;;;;2586583;53;20969;-85
2023/02/26 07:43:06;;;;;;;4.87;1.85;;;1.90;50.40;;;;;;2586580;53;20944;-85
2023/02/26 07:45:33;;;;;;;3.00;1.35;;;1.90;50.40;;;;;;2341146;53;20937;-83
2023/02/26 07:47:59;;;;;;;3.75;1.50;;;2.00;50.50;;;;;;2341381;53;22018;-85
2023/02/26 07:50:25;;;;;;;5.22;1.75;;;2.00;50.50;;;;;;2341171;53;21004;-85
2023/02/26 07:52:52;;;;;;;4.32;1.67;;;2.10;50.60;;;;;;2340714;53;21012;-83
2023/02/26 07:55:18;;;;;;;3.37;1.50;;;2.10;50.60;;;;;;2583501;53;21052;-84
2023/02/26 07:57:45;;;;;;;2.97;1.50;;;2.20;50.60;;;;;;2582002;53;20980;-83
2023/02/26 08:00:12;;;;;;;4.93;1.42;;;2.20;50.50;;;;;;2339149;53;21051;-84
2023/02/26 08:02:38;;;;;;;3.97;1.75;;;2.30;51.20;;;;;;2581689;53;20956;-84
2023/02/26 08:05:05;;;;;;;5.65;2.10;;;2.30;50.60;;;;;;2584347;53;21053;-83
2023/02/26 08:07:32;;;;;;;5.45;1.83;;;2.30;50.60;;;;;;2584197;53;20983;-87
2023/02/26 08:09:58;;;;;;;4.10;1.67;;;2.40;50.60;;;;;;2585740;53;20961;-86
2023/02/26 08:12:24;;;;;;;4.82;1.67;;;2.40;50.60;;;;;;2341527;53;21304;-84
2023/02/26 08:14:51;;;;;;;5.32;1.70;;;2.50;50.60;;;;;;2583406;53;20992;-85
2023/02/26 08:17:17;;;;;;;4.95;1.75;;;2.50;50.60;;;;;;2585165;53;21043;-85
2023/02/26 08:19:43;;;;;;;4.32;1.70;;;2.50;50.60;;;;;;2341873;53;20956;-84
2023/02/26 08:22:10;;;;;;;4.20;1.80;;;2.60;50.60;;;;;;2342232;53;21000;-84
2023/02/26 08:24:36;;;;;;;3.90;1.60;;;2.60;50.60;;;;;;2586998;53;20978;-85
2023/02/26 08:27:02;;;;;;;4.32;1.80;;;2.70;50.70;;;;;;2332022;53;20936;-86
2023/02/26 08:29:29;;;;;;;4.20;1.67;;;2.70;50.80;;;;;;2581539;53;20968;-85
2023/02/26 08:31:55;;;;;;;3.50;1.48;;;2.80;50.80;;;;;;2342459;53;21458;-84
2023/02/26 08:34:21;;;;;;;6.53;1.77;;;2.80;50.70;;;;;;2344098;53;22054;-85
2023/02/26 08:36:49;;;;;;;4.12;1.50;;;2.90;50.80;;;;;;2588793;53;21961;-84
2023/02/26 08:39:15;;;;;;;5.28;1.50;;;2.90;50.70;;;;;;2588824;53;20916;-85
2023/02/26 08:41:41;;;;;;;4.22;1.58;;;3.00;50.80;;;;;;2587503;52;20924;-85
2023/02/26 08:44:08;;;;;;;4.85;1.73;;;3.00;50.80;;;;;;2586585;53;20991;-83
2023/02/26 08:46:34;;;;;;;5.35;1.67;;;3.10;50.80;;;;;;2586538;53;21436;-84
2023/02/26 08:49:01;;;;;;;6.70;2.35;;;2.90;50.50;;;;;;2344195;53;20924;-86
2023/02/26 08:51:27;;;;;;;5.12;2.45;;;3.20;50.80;;;;;;2587337;53;21557;-84
2023/02/26 08:53:54;;;;;;;4.68;2.20;;;3.20;50.80;;;;;;2585464;52;21478;-86
2023/02/26 08:56:20;;;;;;;7.43;2.47;;;3.20;50.80;;;;;;2586575;52;20943;-86
2023/02/26 08:58:46;;;;;;;5.28;2.22;;;3.30;50.90;;;;;;2342050;53;21695;-85
2023/02/26 09:01:12;;;;;;;6.03;2.10;;;3.30;50.90;;;;;;2342367;53;20996;-86
2023/02/26 09:03:39;;;;;;;4.87;1.73;;;3.40;50.90;;;;;;2341201;53;20971;-85
2023/02/26 09:06:05;;;;;;;4.65;1.90;;;3.50;50.90;;;;;;2584571;53;20924;-86
2023/02/26 09:08:32;;;;;;;5.15;2.00;;;3.50;50.80;;;;;;2340566;53;20928;-84
2023/02/26 09:11:02;;;;;;;5.47;2.15;;;3.60;50.80;;;;;;2342377;53;20992;-86
2023/02/26 09:13:28;;;;;;;5.43;1.95;;;3.50;50.60;;;;;;2343200;53;21015;-86
2023/02/26 09:15:54;;;;;;;3.28;1.65;;;3.70;50.70;;;;;;2342711;53;21218;-87
2023/02/26 09:18:21;;;;;;;4.35;1.60;;;3.70;50.70;;;;;;2585847;53;20932;-84
2023/02/26 09:20:47;;;;;;;3.37;1.55;;;3.70;50.60;;;;;;2342753;53;21343;-85
2023/02/26 09:23:13;;;;;;;3.15;1.60;;;3.80;50.60;;;;;;2586543;52;20981;-85
2023/02/26 09:25:40;;;;;;;5.80;2.10;;;3.80;50.60;;;;;;2586806;52;21039;-87
2023/02/26 09:28:06;;;;;;;5.25;1.90;;;3.80;50.40;;;;;;2343808;53;21012;-86
2023/02/26 09:30:33;;;;;;;5.80;2.00;;;3.90;50.30;;;;;;2586253;52;20925;-84
2023/02/26 09:33:02;;;;;;;4.47;1.80;;;3.90;50.40;;;;;;2585784;52;22137;-87
2023/02/26 09:35:28;;;;;;;6.20;2.00;;;3.90;50.50;;;;;;2587887;52;20892;-87
2023/02/26 09:37:54;;;;;;;6.97;2.00;;;4.10;50.50;;;;;;2588099;52;20893;-84
2023/02/26 09:40:35;;;;;;;6.07;1.73;;;4.00;50.40;;;;;;2588535;53;20932;-86
2023/02/26 09:43:25;;;;;;;3.30;1.70;;;4.10;50.40;;;;;;2587593;53;21823;-86
2023/02/26 09:45:52;;;;;;;4.10;1.58;;;4.10;50.20;;;;;;2586487;52;20964;-86
2023/02/26 09:48:18;;;;;;;4.18;1.70;;;4.10;50.20;;;;;;2586598;52;20992;-84
2023/02/26 09:50:52;;;;;;;3.83;1.70;;;4.10;50.10;;;;;;2585014;52;21206;-84
2023/02/26 09:54:23;;;;;;;5.62;1.60;;;4.20;50.10;;;;;;2342285;53;20957;-83
2023/02/26 09:56:52;;;;;;;3.53;1.62;;;4.20;50.10;;;;;;2341179;53;20960;-84
2023/02/26 09:59:18;;;;;;;8.40;2.37;;;4.20;50.80;;;;;;2587666;52;21019;-86
2023/02/26 10:02:09;;;;;;;3.20;1.65;;;4.20;50.20;;;;;;2586627;52;20944;-85
2023/02/26 10:05:31;;;;;;;3.80;1.42;;;4.30;50.30;;;;;;2585780;52;21028;-86
2023/02/26 10:08:06;;;;;;;4.95;1.42;;;4.30;50.10;;;;;;2587662;52;21029;-84
2023/02/26 10:11:10;;;;;;;4.60;1.80;;;4.40;50.10;;;;;;2587208;52;21016;-84
2023/02/26 10:14:43;;;;;;;5.28;1.52;;;4.40;50.10;;;;;;2585337;53;21043;-83
2023/02/26 10:17:34;;;;;;;5.25;2.00;;;4.40;50.10;;;;;;2343131;53;20900;-86
2023/02/26 10:20:04;;;;;;;3.72;1.30;;;4.50;49.90;;;;;;2343000;53;20889;-84
2023/02/26 10:23:23;;;;;;;4.07;1.67;;;4.50;49.90;;;;;;2343226;53;20897;-84
2023/02/26 10:26:01;;;;;;;3.92;1.27;;;4.60;49.90;;;;;;2586063;52;20889;-83
2023/02/26 10:30:02;;;;;;;3.45;1.40;;;4.60;49.80;;;;;;2587761;52;21555;-85
2023/02/26 10:35:37;;;;;;;3.92;1.40;;;4.70;49.80;;;;;;2587629;52;20917;-83
2023/02/26 10:38:11;;;;;;;5.87;1.90;;;4.70;49.70;;;;;;2588851;53;20933;-84
2023/02/26 10:41:21;;;;;;;4.20;1.52;;;4.70;49.50;;;;;;2587321;52;21288;-85
2023/02/26 10:44:10;;;;;;;3.05;1.27;;;4.70;49.40;;;;;;2587505;52;21789;-85
2023/02/26 10:49:41;;;;;;;5.07;1.60;;;4.80;49.50;;;;;;2587885;53;20963;-84
2023/02/26 10:52:19;;;;;;;3.50;1.70;;;4.80;49.50;;;;;;2586066;52;20965;-85
2023/02/26 10:55:03;;;;;;;5.60;1.65;;;4.80;49.30;;;;;;2587459;52;20943;-85
2023/02/26 10:57:32;;;;;;;4.95;1.55;;;4.90;49.30;;;;;;2589902;52;20937;-85
2023/02/26 11:00:04;;;;;;;3.20;1.62;;;4.90;49.40;;;;;;2588340;53;21197;-85
2023/02/26 11:02:50;;;;;;;7.45;1.90;;;4.90;49.30;;;;;;2589770;53;21527;-84
2023/02/26 11:05:19;;;;;;;3.95;1.60;;;4.90;49.20;;;;;;2588191;52;20936;-86
2023/02/26 11:07:48;;;;;;;4.43;1.60;;;4.90;49.20;;;;;;2587797;52;20952;-86
2023/02/26 11:10:22;;;;;;;3.12;1.42;;;4.90;49.20;;;;;;2588264;52;20984;-84
2023/02/26 11:12:49;;;;;;;4.75;1.87;;;4.90;49.20;;;;;;2587860;52;20969;-86
2023/02/26 11:15:17;;;;;;;3.20;1.30;;;4.90;49.20;;;;;;2587799;53;20909;-86
2023/02/26 11:17:46;;;;;;;3.80;1.30;;;4.90;49.30;;;;;;2588072;52;20989;-86
2023/02/26 11:20:15;;;;;;;2.65;1.12;;;5.00;49.50;;;;;;2586436;52;20953;-84
2023/02/26 11:22:55;;;;;;;2.70;0.93;;;5.00;49.60;;;;;;2340884;53;21335;-86
2023/02/26 11:25:23;;;;;;;2.42;1.00;;;5.00;49.60;;;;;;2587987;52;20893;-85
2023/02/26 11:27:52;;;;;;;1.50;0.60;;;5.10;49.80;;;;;;2587639;52;20952;-85
2023/02/26 11:30:19;;;;;;;2.60;0.85;;;5.10;49.80;;;;;;2587426;52;21293;-85
2023/02/26 11:32:49;;;;;;;3.28;1.02;;;5.10;49.90;;;;;;2586574;53;20937;-86
2023/02/26 11:35:17;;;;;;;2.67;0.90;;;5.20;50.10;;;;;;2586628;53;20976;-84
2023/02/26 11:37:55;;;;;;;2.08;0.90;;;5.20;50.20;;;;;;2342758;53;21759;-86
2023/02/26 11:40:45;;;;;;;2.53;0.95;;;5.30;50.30;;;;;;2343178;53;20956;-86
2023/02/26 11:43:18;;;;;;;2.55;0.90;;;5.40;50.30;;;;;;2587756;52;21504;-86
2023/02/26 11:45:46;;;;;;;3.85;0.90;;;5.40;50.40;;;;;;2586870;53;20944;-85
2023/02/26 11:48:15;;;;;;;3.62;1.25;;;5.60;50.60;;;;;;2586566;52;21043;-85
2023/02/26 11:50:46;;;;;;;2.60;0.80;;;5.60;50.50;;;;;;2342548;53;21481;-84
2023/02/26 11:53:23;;;;;;;3.33;1.02;;;5.70;50.50;;;;;;2586696;52;20896;-84
2023/02/26 11:56:02;;;;;;;2.50;0.93;;;5.80;50.40;;;;;;2341104;53;21024;-85
2023/02/26 11:58:33;;;;;;;2.45;1.10;;;5.90;50.40;;;;;;2342278;53;20908;-85
2023/02/26 12:01:00;;;;;;;4.10;1.20;;;6.00;50.40;;;;;;2586148;53;21043;-84
2023/02/26 12:03:28;;;;;;;2.80;1.05;;;6.10;50.20;;;;;;2585543;52;21087;-84
2023/02/26 12:05:54;;;;;;;2.05;0.90;;;6.20;50.10;;;;;;2584596;53;21818;-87
2023/02/26 12:08:39;;;;;;;2.10;0.80;;;6.20;50.00;;;;;;2342795;53;20929;-87
2023/02/26 12:16:34;;;;;;;2.03;0.90;;;6.30;49.80;;;;;;2587241;53;20995;-85
2023/02/26 12:20:58;;;;;;;3.10;1.12;;;6.40;50.10;;;;;;2586534;53;22234;-87
2023/02/26 12:25:03;;;;;;;4.55;1.30;;;6.50;49.30;;;;;;2342702;53;20913;-85
2023/02/26 12:27:56;;;;;;;2.80;1.02;;;6.30;48.90;;;;;;2587175;52;20858;-83
2023/02/26 12:30:40;;;;;;;;;;;6.40;48.70;;;;;;2590830;52;20913;-84
2023/02/26 12:33:32;;;;;;;3.15;1.17;;;6.40;48.90;;;;;;2342188;54;20035;-86
2023/02/26 12:39:48;;;;;;;2.78;1.00;;;6.40;48.80;;;;;;2586471;53;20920;-85
2023/02/26 12:42:59;;;;;;;2.75;1.12;;;6.30;48.90;;;;;;2343566;53;20952;-87
2023/02/26 12:45:56;;;;;;;3.10;1.08;;;6.30;48.80;;;;;;2583412;52;21854;-87
2023/02/26 12:49:16;;;;;;;2.33;1.17;;;6.30;48.60;;;;;;2584778;53;21066;-87
2023/02/26 12:52:11;;;;;;;1.62;0.80;;;6.30;48.50;;;;;;2586009;52;20945;-87
2023/02/26 12:57:20;;;;;;;1.75;0.77;;;6.30;48.70;;;;;;2318173;55;20948;-88
2023/02/26 13:03:34;;;;;;;2.20;0.70;;;6.30;48.60;;;;;;2586334;52;20925;-84
2023/02/26 13:06:37;;;;;;;2.28;0.80;;;6.40;48.50;;;;;;2586356;52;20936;-87
2023/02/26 13:09:32;;;;;;;1.92;0.50;;;6.40;48.40;;;;;;2586506;52;20897;-86
2023/02/26 13:15:17;;;;;;;2.05;0.62;;;6.40;48.30;;;;;;2340321;53;20948;-85
2023/02/26 13:18:10;;;;;;;2.37;0.90;;;6.50;48.20;;;;;;2588174;52;20965;-87
2023/02/26 13:20:37;;;;;;;1.80;0.80;;;6.50;48.20;;;;;;2589576;52;21172;-86
2023/02/26 13:23:16;;;;;;;2.67;1.02;;;6.50;48.30;;;;;;2586878;52;22196;-85
2023/02/26 13:25:50;;;;;;;3.12;0.90;;;6.50;48.20;;;;;;2586586;52;20980;-85
2023/02/26 13:29:48;;;;;;;3.45;1.10;;;6.50;48.20;;;;;;2586392;52;20929;-85
2023/02/26 13:32:20;;;;;;;2.47;0.98;;;6.50;47.90;;;;;;2586030;52;20956;-85
2023/02/26 13:34:52;;;;;;;2.75;1.27;;;6.50;48.00;;;;;;2583266;52;20993;-85
2023/02/26 13:37:33;;;;;;;2.22;0.82;;;6.50;47.90;;;;;;2586515;52;20913;-85
2023/02/26 13:43:16;;;;;;;2.70;0.95;;;6.40;47.70;;;;;;2585505;52;21487;-85
2023/02/26 13:46:00;;;;;;;4.00;1.15;;;6.40;48.00;;;;;;2586648;52;21000;-85
2023/02/26 13:49:27;;;;;;;2.40;1.10;;;6.40;47.90;;;;;;2587107;52;20990;-86
2023/02/26 13:51:53;;;;;;;3.58;1.30;;;6.30;47.90;;;;;;2579061;52;21308;-86
2023/02/26 13:54:34;;;;;;;3.83;1.10;;;6.30;48.00;;;;;;2341050;53;21388;-86
2023/02/26 13:58:07;;;;;;;2.70;1.20;;;6.20;47.90;;;;;;2586694;52;21263;-85
2023/02/26 14:00:33;;;;;;;;;;;6.20;48.00;;;;;;2583123;52;20953;-87
2023/02/26 14:05:05;;;;;;;2.25;0.93;;;6.10;48.10;;;;;;2586821;52;20107;-85
2023/02/26 14:07:51;;;;;;;3.70;1.20;;;6.10;48.10;;;;;;2587342;52;20917;-85
2023/02/26 14:10:25;;;;;;;4.78;1.30;;;6.00;48.10;;;;;;2589083;52;20905;-86
2023/02/26 14:13:08;;;;;;;2.87;1.17;;;6.00;48.20;;;;;;2588662;52;20838;-84
2023/02/26 14:17:30;;;;;;;3.05;1.20;;;6.00;48.30;;;;;;2588555;52;20945;-87
2023/02/26 14:20:16;;;;;;;2.35;1.00;;;6.00;48.60;;;;;;2343724;53;21000;-84
2023/02/26 14:22:46;;;;;;;2.30;0.90;;;6.00;48.70;;;;;;2344304;53;20909;-83